Time,TemperatureF,DewpointF,PressureIn,WindDirection,WindDirectionDegrees,WindSpeedMPH,WindSpeedGustMPH,Humidity,HourlyPrecipIn,Conditions,Clouds,dailyrainin,SolarRadiationWatts/m^2,SoftwareType,DateUTC
2013-01-16 00:02:00,41.0,11.0,-100.00,West,272,3.0,7.0,29,0.00,,,0.00,0.000000,,2013-01-16 08:02:00,
2013-01-16 00:12:00,41.0,11.0,-100.00,West,272,3.0,7.0,29,0.00,,,0.00,0.000000,,2013-01-16 08:12:00,
2013-01-16 00:22:00,41.0,11.0,-100.00,West,272,3.0,7.0,29,0.00,,,0.00,0.000000,,2013-01-16 08:22:00,
2013-01-16 00:32:00,41.0,11.0,-100.00,West,272,3.0,7.0,29,0.00,,,0.00,0.000000,,2013-01-16 08:32:00,
2013-01-16 00:52:00,42.0,10.0,-100.00,WSW,257,4.0,7.0,27,0.00,,,0.00,0.000000,,2013-01-16 08:52:00,
2013-01-16 01:02:00,42.0,10.0,-100.00,WSW,257,4.0,7.0,27,0.00,,,0.00,0.000000,,2013-01-16 09:02:00,
2013-01-16 01:11:00,42.0,10.0,-100.00,WSW,257,4.0,7.0,27,0.00,,,0.00,0.000000,,2013-01-16 09:11:00,
2013-01-16 01:22:00,42.0,10.0,-100.00,WSW,257,4.0,7.0,27,0.00,,,0.00,0.000000,,2013-01-16 09:22:00,
2013-01-16 01:53:00,42.0,14.0,-100.00,WSW,254,6.0,10.0,31,0.00,,,0.00,0.000000,,2013-01-16 09:53:00,
2013-01-16 02:02:00,42.0,14.0,-100.00,WSW,254,6.0,10.0,31,0.00,,,0.00,0.000000,,2013-01-16 10:02:00,
2013-01-16 02:53:00,40.0,10.0,-100.00,WSW,239,5.0,11.0,29,0.00,,,0.00,0.000000,,2013-01-16 10:53:00,
2013-01-16 03:02:00,40.0,10.0,-100.00,WSW,239,5.0,11.0,29,0.00,,,0.00,0.000000,,2013-01-16 11:02:00,
2013-01-16 03:11:00,40.0,10.0,-100.00,WSW,239,5.0,11.0,29,0.00,,,0.00,0.000000,,2013-01-16 11:11:00,
2013-01-16 03:22:00,40.0,10.0,-100.00,WSW,239,5.0,11.0,29,0.00,,,0.00,0.000000,,2013-01-16 11:22:00,
2013-01-16 03:32:00,40.0,10.0,-100.00,WSW,239,5.0,11.0,29,0.00,,,0.00,0.000000,,2013-01-16 11:32:00,
2013-01-16 03:53:00,40.0,12.0,-100.00,WSW,256,6.0,12.0,31,0.00,,,0.00,0.000000,,2013-01-16 11:53:00,
2013-01-16 04:03:00,40.0,12.0,-100.00,WSW,256,6.0,12.0,31,0.00,,,0.00,0.000000,,2013-01-16 12:03:00,
2013-01-16 04:12:00,40.0,12.0,-100.00,WSW,256,6.0,12.0,31,0.00,,,0.00,0.000000,,2013-01-16 12:12:00,
2013-01-16 04:22:00,40.0,12.0,-100.00,WSW,256,6.0,12.0,31,0.00,,,0.00,0.000000,,2013-01-16 12:22:00,
2013-01-16 04:32:00,40.0,12.0,-100.00,WSW,256,6.0,12.0,31,0.00,,,0.00,0.000000,,2013-01-16 12:32:00,
2013-01-16 04:53:00,37.0,13.0,-100.00,WSW,237,9.0,12.0,36,0.00,,,0.00,0.000000,,2013-01-16 12:53:00,
2013-01-16 05:02:00,37.0,13.0,-100.00,WSW,237,9.0,12.0,36,0.00,,,0.00,0.000000,,2013-01-16 13:02:00,
2013-01-16 05:12:00,37.0,13.0,-100.00,WSW,237,9.0,12.0,36,0.00,,,0.00,0.000000,,2013-01-16 13:12:00,
2013-01-16 05:22:00,37.0,13.0,-100.00,WSW,237,9.0,12.0,36,0.00,,,0.00,0.000000,,2013-01-16 13:22:00,
2013-01-16 05:32:00,37.0,13.0,-100.00,WSW,237,9.0,12.0,36,0.00,,,0.00,0.000000,,2013-01-16 13:32:00,
2013-01-16 05:53:00,37.0,13.0,-100.00,WSW,238,9.0,15.0,36,0.00,,,0.00,0.000000,,2013-01-16 13:53:00,
2013-01-16 06:03:00,37.0,13.0,-100.00,WSW,238,9.0,15.0,36,0.00,,,0.00,0.000000,,2013-01-16 14:03:00,
2013-01-16 06:12:00,37.0,13.0,-100.00,WSW,238,9.0,15.0,36,0.00,,,0.00,0.000000,,2013-01-16 14:12:00,
2013-01-16 06:22:00,37.0,13.0,-100.00,WSW,238,9.0,15.0,36,0.00,,,0.00,0.000000,,2013-01-16 14:22:00,
2013-01-16 06:32:00,37.0,13.0,-100.00,WSW,238,9.0,15.0,36,0.00,,,0.00,0.000000,,2013-01-16 14:32:00,
2013-01-16 06:53:00,38.0,11.0,-100.00,WSW,238,8.0,15.0,32,0.00,,,0.00,0.000000,,2013-01-16 14:53:00,
2013-01-16 07:03:00,38.0,11.0,-100.00,WSW,238,8.0,15.0,32,0.00,,,0.00,0.000000,,2013-01-16 15:03:00,
2013-01-16 07:12:00,38.0,11.0,-100.00,WSW,238,8.0,15.0,32,0.00,,,0.00,0.000000,,2013-01-16 15:12:00,
2013-01-16 07:22:00,38.0,11.0,-100.00,WSW,238,8.0,15.0,32,0.00,,,0.00,0.000000,,2013-01-16 15:22:00,
2013-01-16 07:32:00,38.0,11.0,-100.00,WSW,238,8.0,15.0,32,0.00,,,0.00,0.000000,,2013-01-16 15:32:00,
2013-01-16 07:53:00,39.0,9.0,-100.00,WSW,245,7.0,12.0,29,0.00,,,0.00,0.000000,,2013-01-16 15:53:00,
2013-01-16 08:03:00,39.0,9.0,-100.00,WSW,245,7.0,12.0,29,0.00,,,0.00,0.000000,,2013-01-16 16:03:00,
2013-01-16 08:12:00,39.0,9.0,-100.00,WSW,245,7.0,12.0,29,0.00,,,0.00,0.000000,,2013-01-16 16:12:00,
2013-01-16 08:22:00,39.0,9.0,-100.00,WSW,245,7.0,12.0,29,0.00,,,0.00,0.000000,,2013-01-16 16:22:00,
2013-01-16 08:32:00,39.0,9.0,-100.00,WSW,245,7.0,12.0,29,0.00,,,0.00,0.000000,,2013-01-16 16:32:00,
2013-01-16 08:53:00,41.0,11.0,-100.00,WSW,244,8.0,13.0,29,0.00,,,0.00,37.000000,,2013-01-16 16:53:00,
2013-01-16 09:02:00,41.0,11.0,-100.00,WSW,244,8.0,13.0,29,0.00,,,0.00,37.000000,,2013-01-16 17:02:00,
2013-01-16 09:33:00,41.0,11.0,-100.00,WSW,244,8.0,13.0,29,0.00,,,0.00,37.000000,,2013-01-16 17:33:00,
2013-01-16 09:53:00,46.0,13.0,-100.00,SW,229,6.0,14.0,26,0.00,,,0.00,199.000000,,2013-01-16 17:53:00,
2013-01-16 10:02:00,46.0,13.0,-100.00,SW,229,6.0,14.0,26,0.00,,,0.00,199.000000,,2013-01-16 18:02:00,
2013-01-16 10:33:00,46.0,13.0,-100.00,SW,229,6.0,14.0,26,0.00,,,0.00,199.000000,,2013-01-16 18:33:00,
2013-01-16 10:53:00,46.0,8.0,-100.00,SW,228,8.0,15.0,21,0.00,,,0.00,322.000000,,2013-01-16 18:53:00,
2013-01-16 11:02:00,46.0,8.0,-100.00,SW,228,8.0,15.0,21,0.00,,,0.00,322.000000,,2013-01-16 19:02:00,
2013-01-16 11:12:00,46.0,8.0,-100.00,SW,228,8.0,15.0,21,0.00,,,0.00,322.000000,,2013-01-16 19:12:00,
2013-01-16 11:22:00,46.0,8.0,-100.00,SW,228,8.0,15.0,21,0.00,,,0.00,322.000000,,2013-01-16 19:22:00,
2013-01-16 11:32:00,46.0,8.0,-100.00,SW,228,8.0,15.0,21,0.00,,,0.00,322.000000,,2013-01-16 19:32:00,
2013-01-16 12:03:00,49.0,13.0,-100.00,SW,222,6.0,11.0,23,0.00,,,0.00,405.000000,,2013-01-16 20:03:00,
2013-01-16 12:12:00,49.0,13.0,-100.00,SW,222,6.0,11.0,23,0.00,,,0.00,405.000000,,2013-01-16 20:12:00,
2013-01-16 12:23:00,49.0,13.0,-100.00,SW,222,6.0,11.0,23,0.00,,,0.00,405.000000,,2013-01-16 20:23:00,
2013-01-16 12:32:00,49.0,13.0,-100.00,SW,222,6.0,11.0,23,0.00,,,0.00,405.000000,,2013-01-16 20:32:00,
2013-01-16 12:53:00,48.0,14.0,-100.00,SW,224,7.0,10.0,25,0.00,,,0.00,438.000000,,2013-01-16 20:53:00,
2013-01-16 13:02:00,48.0,14.0,-100.00,SW,224,7.0,10.0,25,0.00,,,0.00,438.000000,,2013-01-16 21:02:00,
2013-01-16 13:12:00,48.0,14.0,-100.00,SW,224,7.0,10.0,25,0.00,,,0.00,438.000000,,2013-01-16 21:12:00,
2013-01-16 13:22:00,48.0,14.0,-100.00,SW,224,7.0,10.0,25,0.00,,,0.00,438.000000,,2013-01-16 21:22:00,
2013-01-16 13:32:00,48.0,14.0,-100.00,SW,224,7.0,10.0,25,0.00,,,0.00,438.000000,,2013-01-16 21:32:00,
2013-01-16 13:53:00,53.0,11.0,-100.00,SW,226,5.0,8.0,18,0.00,,,0.00,418.000000,,2013-01-16 21:53:00,
2013-01-16 14:02:00,53.0,11.0,-100.00,SW,226,5.0,8.0,18,0.00,,,0.00,418.000000,,2013-01-16 22:02:00,
2013-01-16 14:12:00,53.0,11.0,-100.00,SW,226,5.0,8.0,18,0.00,,,0.00,418.000000,,2013-01-16 22:12:00,
2013-01-16 14:22:00,53.0,11.0,-100.00,SW,226,5.0,8.0,18,0.00,,,0.00,418.000000,,2013-01-16 22:22:00,
2013-01-16 14:32:00,53.0,11.0,-100.00,SW,226,5.0,8.0,18,0.00,,,0.00,418.000000,,2013-01-16 22:32:00,
2013-01-16 14:53:00,54.0,9.0,-100.00,SW,225,4.0,8.0,16,0.00,,,0.00,328.000000,,2013-01-16 22:53:00,
2013-01-16 15:02:00,54.0,9.0,-100.00,SW,225,4.0,8.0,16,0.00,,,0.00,328.000000,,2013-01-16 23:02:00,
2013-01-16 15:12:00,54.0,9.0,-100.00,SW,225,4.0,8.0,16,0.00,,,0.00,328.000000,,2013-01-16 23:12:00,
2013-01-16 15:22:00,54.0,9.0,-100.00,SW,225,4.0,8.0,16,0.00,,,0.00,328.000000,,2013-01-16 23:22:00,
2013-01-16 15:32:00,54.0,9.0,-100.00,SW,225,4.0,8.0,16,0.00,,,0.00,328.000000,,2013-01-16 23:32:00,
2013-01-16 15:53:00,54.0,3.0,-100.00,SW,236,5.0,9.0,12,0.00,,,0.00,215.000000,,2013-01-16 23:53:00,
2013-01-16 16:52:00,50.0,1.0,-100.00,WSW,244,4.0,7.0,13,0.00,,,0.00,62.000000,,2013-01-17 00:52:00,
2013-01-16 17:02:00,50.0,1.0,-100.00,WSW,244,4.0,7.0,13,0.00,,,0.00,62.000000,,2013-01-17 01:02:00,
2013-01-16 17:52:00,49.0,-1.0,-100.00,SW,233,5.0,8.0,12,0.00,,,0.00,3.000000,,2013-01-17 01:52:00,
2013-01-16 18:02:00,49.0,-1.0,-100.00,SW,233,5.0,8.0,12,0.00,,,0.00,3.000000,,2013-01-17 02:02:00,
2013-01-16 19:02:00,48.0,4.0,-100.00,WSW,238,5.0,8.0,16,0.00,,,0.00,0.000000,,2013-01-17 03:02:00,
2013-01-16 19:52:00,48.0,8.0,-100.00,WSW,252,5.0,7.0,19,0.00,,,0.00,0.000000,,2013-01-17 03:52:00,
2013-01-16 20:02:00,48.0,8.0,-100.00,WSW,252,5.0,7.0,19,0.00,,,0.00,0.000000,,2013-01-17 04:02:00,
2013-01-16 20:12:00,48.0,8.0,-100.00,WSW,252,5.0,7.0,19,0.00,,,0.00,0.000000,,2013-01-17 04:12:00,
2013-01-16 20:22:00,48.0,8.0,-100.00,WSW,252,5.0,7.0,19,0.00,,,0.00,0.000000,,2013-01-17 04:22:00,
2013-01-16 20:52:00,47.0,15.0,-100.00,WSW,248,5.0,9.0,27,0.00,,,0.00,0.000000,,2013-01-17 04:52:00,
2013-01-16 21:04:00,47.0,15.0,-100.00,WSW,248,5.0,9.0,27,0.00,,,0.00,0.000000,,2013-01-17 05:04:00,
2013-01-16 21:12:00,47.0,15.0,-100.00,WSW,248,5.0,9.0,27,0.00,,,0.00,0.000000,,2013-01-17 05:12:00,
2013-01-16 21:22:00,47.0,15.0,-100.00,WSW,248,5.0,9.0,27,0.00,,,0.00,0.000000,,2013-01-17 05:22:00,
2013-01-16 21:32:00,47.0,15.0,-100.00,WSW,248,5.0,9.0,27,0.00,,,0.00,0.000000,,2013-01-17 05:32:00,
2013-01-16 21:53:00,45.0,16.0,-100.00,WSW,255,6.0,9.0,31,0.00,,,0.00,0.000000,,2013-01-17 05:53:00,
2013-01-16 22:02:00,45.0,16.0,-100.00,WSW,255,6.0,9.0,31,0.00,,,0.00,0.000000,,2013-01-17 06:02:00,
2013-01-16 22:12:00,45.0,16.0,-100.00,WSW,255,6.0,9.0,31,0.00,,,0.00,0.000000,,2013-01-17 06:12:00,
2013-01-16 22:22:00,45.0,16.0,-100.00,WSW,255,6.0,9.0,31,0.00,,,0.00,0.000000,,2013-01-17 06:22:00,
2013-01-16 22:32:00,45.0,16.0,-100.00,WSW,255,6.0,9.0,31,0.00,,,0.00,0.000000,,2013-01-17 06:32:00,
2013-01-16 22:52:00,44.0,15.0,-100.00,West,261,6.0,10.0,30,0.00,,,0.00,0.000000,,2013-01-17 06:52:00,
2013-01-16 23:02:00,44.0,15.0,-100.00,West,261,6.0,10.0,30,0.00,,,0.00,0.000000,,2013-01-17 07:02:00,
2013-01-16 23:12:00,44.0,15.0,-100.00,West,261,6.0,10.0,30,0.00,,,0.00,0.000000,,2013-01-17 07:12:00,
2013-01-16 23:22:00,44.0,15.0,-100.00,West,261,6.0,10.0,30,0.00,,,0.00,0.000000,,2013-01-17 07:22:00,
2013-01-16 23:32:00,44.0,15.0,-100.00,West,261,6.0,10.0,30,0.00,,,0.00,0.000000,,2013-01-17 07:32:00,
2013-01-16 23:52:00,44.0,14.0,-100.00,WSW,251,6.0,11.0,29,0.00,,,0.00,0.000000,,2013-01-17 07:52:00,